createdAt,value
2018-06-19T00:00:29.392Z,99.99
2018-06-19T00:13:09.836Z,99.99
2018-06-19T00:15:51.862Z,99.99
2018-06-19T00:16:51.737Z,99.99
2018-06-19T00:17:51.609Z,99.99
2018-06-19T00:18:51.531Z,99.99
2018-06-19T00:19:51.429Z,99.99
2018-06-19T00:45:34.316Z,99.99
2018-06-19T00:46:35.475Z,99.99
2018-06-19T00:47:34.125Z,99.99
2018-06-19T00:48:34.121Z,99.99
2018-06-19T00:49:33.926Z,99.99
2018-06-19T00:50:33.929Z,99.99
2018-06-19T00:51:33.779Z,99.99
2018-06-19T00:52:33.781Z,99.99
2018-06-19T00:53:33.616Z,99.99
2018-06-19T00:54:33.650Z,99.99
2018-06-19T00:55:33.472Z,99.99
2018-06-19T00:58:15.761Z,99.99
2018-06-19T00:59:17.812Z,99.99
2018-06-19T01:00:15.593Z,99.99
2018-06-19T01:26:37.179Z,99.99
2018-06-19T01:27:37.039Z,99.99
2018-06-19T01:28:37.062Z,99.99
2018-06-19T01:29:36.897Z,99.99
2018-06-19T01:30:36.870Z,99.99
2018-06-19T01:31:36.720Z,99.99
2018-06-19T01:32:36.683Z,99.99
2018-06-19T01:33:36.565Z,99.99
2018-06-19T01:34:36.574Z,99.99
2018-06-19T01:35:36.412Z,99.99
2018-06-19T01:36:36.390Z,99.99
2018-06-19T01:37:36.225Z,99.99
2018-06-19T01:38:36.226Z,99.99
2018-06-19T01:39:36.087Z,99.99
2018-06-19T01:40:36.144Z,99.99
2018-06-19T01:41:35.950Z,99.99
2018-06-19T01:42:35.909Z,99.99
2018-06-19T01:43:35.790Z,99.99
2018-06-19T01:44:35.724Z,99.99
2018-06-19T01:45:35.618Z,99.99
2018-06-19T01:46:35.631Z,99.99
2018-06-19T01:47:35.444Z,99.99
2018-06-19T01:48:35.448Z,99.99
2018-06-19T01:49:35.294Z,99.99
2018-06-19T01:50:35.242Z,99.99
2018-06-19T01:51:35.225Z,99.99
2018-06-19T01:52:35.159Z,99.99
2018-06-19T01:53:35.021Z,99.99
2018-06-19T01:54:34.965Z,99.99
2018-06-19T01:55:34.801Z,99.99
2018-06-19T01:56:35.832Z,99.99
2018-06-19T01:57:34.662Z,99.99
2018-06-19T01:58:34.726Z,99.99
2018-06-19T01:59:34.500Z,99.99
2018-06-19T02:00:34.497Z,99.99
2018-06-19T02:01:34.345Z,99.99
2018-06-19T02:02:34.358Z,99.99
2018-06-19T02:03:34.315Z,99.99
2018-06-19T02:04:34.263Z,99.99
2018-06-19T02:05:34.023Z,99.99
2018-06-19T02:06:34.026Z,99.99
2018-06-19T02:07:33.914Z,99.99
2018-06-19T02:08:33.837Z,99.99
2018-06-19T02:09:33.703Z,99.99
2018-06-19T02:10:33.739Z,99.99
2018-06-19T02:11:33.546Z,99.99
2018-06-19T02:12:33.551Z,99.99
2018-06-19T02:13:33.435Z,99.99
2018-06-19T02:14:34.413Z,99.99
2018-06-19T02:15:33.239Z,99.99
2018-06-19T02:16:33.264Z,99.99
2018-06-19T02:17:33.083Z,99.99
2018-06-19T02:18:33.119Z,99.99
2018-06-19T02:19:32.923Z,99.99
2018-06-19T02:20:32.884Z,99.99
2018-06-19T02:21:32.828Z,99.99
2018-06-19T02:22:32.796Z,99.99
2018-06-19T02:23:32.619Z,99.99
2018-06-19T02:24:32.643Z,99.99
2018-06-19T02:25:32.431Z,99.99
2018-06-19T02:26:32.413Z,99.99
2018-06-19T02:27:32.274Z,99.99
2018-06-19T02:28:32.322Z,99.99
2018-06-19T02:29:32.139Z,99.99
2018-06-19T02:30:32.142Z,99.99
2018-06-19T02:31:31.968Z,99.99
2018-06-19T02:32:31.930Z,99.99
2018-06-19T02:33:31.823Z,99.99
2018-06-19T02:34:31.790Z,99.99
2018-06-19T02:35:31.658Z,99.99
2018-06-19T02:38:13.774Z,99.99
2018-06-19T02:39:13.762Z,99.99
2018-06-19T02:40:13.671Z,99.99
2018-06-19T02:41:13.607Z,99.99
2018-06-19T02:42:13.461Z,99.99
2018-06-19T02:44:55.305Z,99.99
2018-06-19T02:45:55.275Z,99.99
2018-06-19T02:46:55.112Z,99.99
2018-06-19T02:47:55.075Z,99.99
2018-06-19T02:48:54.987Z,99.99
2018-06-19T02:53:27.913Z,99.99
2018-06-19T02:54:27.703Z,99.99
2018-06-19T02:55:27.748Z,99.99
2018-06-19T02:56:27.568Z,99.99
2018-06-19T02:57:27.494Z,99.99
2018-06-19T02:58:27.399Z,99.99
2018-06-19T03:01:09.301Z,99.99
2018-06-19T03:02:09.365Z,99.99
2018-06-19T03:03:09.125Z,99.99
2018-06-19T03:05:43.788Z,99.99
2018-06-19T03:06:43.764Z,99.99
2018-06-19T03:07:43.636Z,99.99
2018-06-19T03:13:17.136Z,99.99
2018-06-19T03:15:59.283Z,99.99
2018-06-19T03:16:59.312Z,99.99
2018-06-19T03:17:59.129Z,99.99
2018-06-19T03:18:59.169Z,99.99
2018-06-19T03:19:58.970Z,99.99
2018-06-19T03:20:58.975Z,99.99
2018-06-19T03:21:58.824Z,99.99
2018-06-19T03:22:58.787Z,99.99
2018-06-19T03:23:58.654Z,99.99
2018-06-19T03:24:58.700Z,99.99
2018-06-19T03:25:58.499Z,99.99
2018-06-19T03:28:40.819Z,99.99
2018-06-19T03:29:40.811Z,99.99
2018-06-19T03:32:05.300Z,99.99
2018-06-19T03:33:05.349Z,99.99
2018-06-19T03:34:05.186Z,99.99
2018-06-19T03:35:05.133Z,99.99
2018-06-19T03:36:05.033Z,99.99
2018-06-19T03:38:46.813Z,99.99
2018-06-19T03:39:46.820Z,99.99
2018-06-19T03:40:46.635Z,99.99
2018-06-19T03:41:46.644Z,99.99
2018-06-19T03:42:46.476Z,99.99
2018-06-19T03:45:28.336Z,99.99
2018-06-19T03:46:28.329Z,99.99
2018-06-19T03:47:28.140Z,99.99
2018-06-19T03:50:10.326Z,99.99
2018-06-19T03:51:10.252Z,99.99
2018-06-19T03:52:10.173Z,99.99
2018-06-19T03:53:10.148Z,99.99
2018-06-19T03:54:09.993Z,99.99
2018-06-19T03:55:10.003Z,99.99
2018-06-19T03:56:09.826Z,99.99
2018-06-19T03:58:51.811Z,99.99
2018-06-19T03:59:51.807Z,99.99
2018-06-19T04:28:13.496Z,99.99
2018-06-19T04:30:55.856Z,99.99
2018-06-19T04:31:55.760Z,99.99
2018-06-19T04:32:55.675Z,99.99
2018-06-19T04:33:55.675Z,99.99
2018-06-19T04:34:55.520Z,99.99
2018-06-19T04:35:55.498Z,99.99
2018-06-19T04:36:55.347Z,99.99
2018-06-19T04:39:43.830Z,99.99
2018-06-19T04:40:43.901Z,99.99
2018-06-19T04:41:43.658Z,99.99
2018-06-19T04:42:43.687Z,99.99
2018-06-19T04:43:43.485Z,99.99
2018-06-19T04:44:43.481Z,99.99
2018-06-19T04:45:43.357Z,99.99
2018-06-19T04:46:43.393Z,99.99
2018-06-19T04:47:43.221Z,99.99
2018-06-19T04:48:43.187Z,99.99
2018-06-19T04:49:43.066Z,99.99
2018-06-19T04:50:42.984Z,99.99
2018-06-19T04:51:42.903Z,99.99
2018-06-19T04:59:17.184Z,99.99
2018-06-19T05:01:59.319Z,99.99
2018-06-19T05:02:59.394Z,99.99
2018-06-19T05:03:59.172Z,99.99
2018-06-19T05:04:59.156Z,99.99
2018-06-19T05:05:59.007Z,99.99
2018-06-19T05:08:40.849Z,99.99
2018-06-19T05:30:20.887Z,99.99
2018-06-19T05:31:20.835Z,99.99
2018-06-19T05:32:20.715Z,99.99
2018-06-19T05:33:20.644Z,99.99
2018-06-19T05:34:20.545Z,99.99
2018-06-19T05:35:20.643Z,99.99
2018-06-19T05:36:20.386Z,99.99
2018-06-19T05:37:20.367Z,99.99
2018-06-19T05:38:20.243Z,99.99
2018-06-19T05:41:02.630Z,99.99
2018-06-19T05:43:44.337Z,99.99
2018-06-19T05:44:46.324Z,99.99
2018-06-19T05:45:44.248Z,99.99
2018-06-19T05:48:08.833Z,99.99
2018-06-19T05:50:50.870Z,99.99
2018-06-19T05:51:50.871Z,99.99
2018-06-19T05:52:50.737Z,99.99
2018-06-19T05:53:50.691Z,99.99
2018-06-19T05:54:50.526Z,99.99
2018-06-19T05:55:50.527Z,99.99
2018-06-19T05:56:50.367Z,99.99
2018-06-19T05:57:50.429Z,99.99
2018-06-19T06:09:23.884Z,99.99
2018-06-19T06:10:23.677Z,99.99
2018-06-19T06:11:23.688Z,99.99
2018-06-19T06:12:23.526Z,99.99
2018-06-19T06:13:23.568Z,99.99
2018-06-19T06:14:23.372Z,99.99
2018-06-19T06:15:23.304Z,99.99
2018-06-19T06:16:23.317Z,99.99
2018-06-19T06:17:23.191Z,99.99
2018-06-19T06:18:23.054Z,99.99
2018-06-19T06:21:05.333Z,99.99
2018-06-19T06:22:05.383Z,99.99
2018-06-19T06:23:05.193Z,99.99
2018-06-19T06:24:05.225Z,99.99
2018-06-19T06:25:05.021Z,99.99
2018-06-19T06:26:05.028Z,99.99
2018-06-19T06:27:04.893Z,99.99
2018-06-19T06:28:06.877Z,99.99
2018-06-19T06:29:04.721Z,99.99
2018-06-19T06:31:46.864Z,99.99
2018-06-19T06:32:46.848Z,99.99
2018-06-19T06:33:46.687Z,99.99
2018-06-19T06:34:46.701Z,99.99
2018-06-19T06:35:46.532Z,99.99
2018-06-19T06:36:46.590Z,99.99
2018-06-19T06:37:46.477Z,99.99
2018-06-19T06:41:52.853Z,99.99
2018-06-19T06:42:52.886Z,99.99
2018-06-19T06:43:52.702Z,99.99
2018-06-19T06:44:52.627Z,99.99
2018-06-19T06:45:52.522Z,99.99
2018-06-19T06:48:34.365Z,99.99
2018-06-19T06:49:34.361Z,99.99
2018-06-19T06:50:34.285Z,99.99
2018-06-19T06:51:34.164Z,99.99
2018-06-19T07:08:50.498Z,99.99
2018-06-19T07:09:50.340Z,99.99
2018-06-19T07:12:32.367Z,99.99
2018-06-19T07:13:32.369Z,99.99
2018-06-19T07:14:32.216Z,99.99
2018-06-19T07:15:32.246Z,99.99
2018-06-19T07:16:32.053Z,99.99
2018-06-19T07:17:32.084Z,99.99
2018-06-19T07:18:31.876Z,99.99
2018-06-19T07:19:32.004Z,99.99
2018-06-19T07:20:31.744Z,99.99
2018-06-19T07:21:31.719Z,99.99
2018-06-19T07:22:31.635Z,99.99
2018-06-19T07:25:13.911Z,99.99
2018-06-19T07:26:16.439Z,99.99
2018-06-19T07:27:13.716Z,99.99
2018-06-19T07:28:16.415Z,99.99
2018-06-19T07:40:54.508Z,99.99
2018-06-19T07:41:54.489Z,99.99
2018-06-19T07:42:54.294Z,99.99
2018-06-19T07:43:54.349Z,99.99
2018-06-19T07:44:54.137Z,99.99
2018-06-19T07:45:54.196Z,99.99
2018-06-19T07:46:54.003Z,99.99
2018-06-19T07:47:53.990Z,99.99
2018-06-19T07:48:53.835Z,99.99
2018-06-19T07:49:53.818Z,99.99
2018-06-19T07:50:53.663Z,99.99
2018-06-19T07:51:54.684Z,99.99
2018-06-19T07:52:53.511Z,99.99
2018-06-19T07:53:53.537Z,99.99
2018-06-19T07:54:53.371Z,99.99
2018-06-19T07:57:35.387Z,99.99
2018-06-19T07:58:37.369Z,99.99
2018-06-19T07:59:35.218Z,99.99
2018-06-19T08:02:17.420Z,99.99
2018-06-19T08:03:38.284Z,99.99
2018-06-19T08:04:38.236Z,99.99
2018-06-19T08:05:17.161Z,99.99
2018-06-19T08:06:19.311Z,99.99
2018-06-19T08:25:57.307Z,99.99
2018-06-19T08:26:57.320Z,99.99
2018-06-19T08:27:57.128Z,99.99
2018-06-19T08:28:57.194Z,99.99
2018-06-19T08:29:57.015Z,99.99
2018-06-19T08:32:38.876Z,99.99
2018-06-19T08:33:40.919Z,99.99
2018-06-19T08:34:38.755Z,99.99
2018-06-19T08:35:38.794Z,99.99
2018-06-19T08:36:38.575Z,99.99
2018-06-19T08:37:38.561Z,99.99
2018-06-19T08:38:38.422Z,99.99
2018-06-19T08:39:38.402Z,99.99
2018-06-19T08:40:38.264Z,99.99
2018-06-19T08:41:38.279Z,99.99
2018-06-19T08:42:38.097Z,99.99
2018-06-19T08:43:40.125Z,99.99
2018-06-19T08:44:38.091Z,99.99
2018-06-19T08:45:37.886Z,99.99
2018-06-19T08:46:37.795Z,99.99
2018-06-19T08:49:19.890Z,99.99
2018-06-19T08:50:22.850Z,99.99
2018-06-19T08:51:19.725Z,99.99
2018-06-19T08:53:23.463Z,99.99
2018-06-19T08:53:23.990Z,99.99
2018-06-19T08:54:24.065Z,99.99
2018-06-19T08:55:23.865Z,99.99
2018-06-19T08:58:06.014Z,99.99
2018-06-19T08:59:05.936Z,99.99
2018-06-19T09:00:05.739Z,99.99
2018-06-19T09:01:05.754Z,99.99
2018-06-19T09:02:05.722Z,99.99
2018-06-19T09:03:05.592Z,99.99
2018-06-19T09:04:05.438Z,99.99
2018-06-19T09:06:47.404Z,99.99
2018-06-19T09:07:47.389Z,99.99
2018-06-19T09:08:47.250Z,99.99
2018-06-19T09:11:29.429Z,99.99
2018-06-19T09:12:29.374Z,99.99
2018-06-19T09:13:29.280Z,99.99
2018-06-19T09:14:31.225Z,99.99
2018-06-19T09:15:29.082Z,99.99
2018-06-19T09:16:29.157Z,99.99
2018-06-19T09:17:28.943Z,99.99
2018-06-19T09:18:28.938Z,99.99
2018-06-19T09:19:28.765Z,99.99
2018-06-19T09:22:10.939Z,99.99
2018-06-19T09:23:10.912Z,99.99
2018-06-19T09:24:10.743Z,99.99
2018-06-19T09:26:52.911Z,99.99
2018-06-19T09:27:53.894Z,99.99
2018-06-19T09:28:52.786Z,99.99
2018-06-19T09:31:34.966Z,99.99
2018-06-19T09:32:34.957Z,99.99
2018-06-19T09:33:34.781Z,99.99
2018-06-19T09:34:34.739Z,99.99
2018-06-19T09:35:34.598Z,99.99
2018-06-19T09:38:16.905Z,99.99
2018-06-19T09:39:16.878Z,99.99
2018-06-19T09:40:16.739Z,99.99
2018-06-19T09:41:16.755Z,99.99
2018-06-19T09:42:16.596Z,99.99
2018-06-19T09:43:17.630Z,99.99
2018-06-19T09:44:16.455Z,99.99
2018-06-19T09:45:16.474Z,99.99
2018-06-19T09:46:16.287Z,99.99
2018-06-19T09:47:16.306Z,99.99
2018-06-19T09:48:16.139Z,99.99
2018-06-19T09:49:16.236Z,99.99
2018-06-19T09:50:15.991Z,99.99
2018-06-19T09:52:57.909Z,99.99
2018-06-19T09:53:57.962Z,99.99
2018-06-19T09:54:57.780Z,99.99
2018-06-19T09:57:39.919Z,99.99
2018-06-19T09:58:39.936Z,99.99
2018-06-19T09:59:39.831Z,99.99
2018-06-19T10:02:21.900Z,99.99
2018-06-19T10:03:21.871Z,99.99
2018-06-19T10:04:21.758Z,99.99
2018-06-19T10:05:21.720Z,99.99
2018-06-19T10:06:21.641Z,99.99
2018-06-19T10:07:23.593Z,99.99
2018-06-19T10:08:21.434Z,99.99
2018-06-19T10:09:26.213Z,99.99
2018-06-19T10:10:21.297Z,99.99
2018-06-19T10:11:23.311Z,99.99
2018-06-19T10:12:21.136Z,99.99
2018-06-19T10:13:21.161Z,99.99
2018-06-19T10:14:20.997Z,99.99
2018-06-19T10:15:20.985Z,99.99
2018-06-19T10:16:20.851Z,99.99
2018-06-19T10:19:02.924Z,99.99
2018-06-19T10:20:02.924Z,99.99
2018-06-19T10:21:02.761Z,99.99
2018-06-19T10:22:02.786Z,99.99
2018-06-19T10:23:02.619Z,99.99
2018-06-19T10:24:02.539Z,99.99
2018-06-19T10:25:02.473Z,99.99
2018-06-19T10:26:02.376Z,99.99
2018-06-19T10:27:02.293Z,99.99
2018-06-19T10:28:02.323Z,99.99
2018-06-19T10:29:02.152Z,99.99
2018-06-19T10:30:03.225Z,99.99
2018-06-19T10:31:01.989Z,99.99
2018-06-19T10:33:43.930Z,99.99
2018-06-19T10:36:25.950Z,99.99
2018-06-19T10:37:25.935Z,99.99
2018-06-19T10:38:25.795Z,99.99
2018-06-19T10:39:25.745Z,99.99
2018-06-19T10:40:25.643Z,99.99
2018-06-19T10:41:25.589Z,99.99
2018-06-19T10:42:25.451Z,99.99
2018-06-19T10:43:25.379Z,99.99
2018-06-19T10:44:25.303Z,99.99
2018-06-19T10:45:27.362Z,99.99
2018-06-19T10:46:25.196Z,99.99
2018-06-19T10:49:18.925Z,99.99
2018-06-19T10:50:18.957Z,99.65
2018-06-19T10:51:18.811Z,99.45
2018-06-19T10:52:18.694Z,98.97
2018-06-19T10:53:18.612Z,98.49
2018-06-19T10:54:18.574Z,98.20
2018-06-19T10:55:18.468Z,98.29
2018-06-19T10:56:18.416Z,99.79
2018-06-19T10:57:18.334Z,99.88
2018-06-19T10:58:18.288Z,99.88
2018-06-19T10:59:18.152Z,99.88
2018-06-19T11:00:18.206Z,99.99
2018-06-19T11:01:18.036Z,98.82
2018-06-19T11:02:19.092Z,99.11
2018-06-19T11:03:17.878Z,98.78
2018-06-19T11:04:17.794Z,98.87
2018-06-19T11:05:17.718Z,99.35
2018-06-19T11:06:17.748Z,97.47
2018-06-19T11:07:17.598Z,97.77
2018-06-19T11:08:17.607Z,97.77
2018-06-19T11:09:17.402Z,96.61
2018-06-19T11:11:59.457Z,98.10
2018-06-19T11:14:41.439Z,97.57
2018-06-19T11:17:23.468Z,98.83
2018-06-19T11:18:23.446Z,98.49
2018-06-19T11:19:23.285Z,98.73
2018-06-19T11:20:23.252Z,99.11
2018-06-19T11:21:23.191Z,98.00
2018-06-19T11:22:24.102Z,99.99
2018-06-19T11:23:22.992Z,99.60
2018-06-19T11:24:22.969Z,99.99
2018-06-19T11:25:22.837Z,99.99
2018-06-19T11:26:22.879Z,99.99
2018-06-19T11:27:22.679Z,99.99
2018-06-19T11:28:23.639Z,99.99
2018-06-19T11:29:22.549Z,99.99
2018-06-19T11:32:04.442Z,98.78
2018-06-19T11:33:04.581Z,99.35
2018-06-19T11:34:04.289Z,98.92
2018-06-19T11:35:04.326Z,97.67
2018-06-19T11:36:04.135Z,97.47
2018-06-19T11:37:04.112Z,96.31
2018-06-19T11:38:04.167Z,96.89
2018-06-19T11:39:05.076Z,96.80
2018-06-19T11:40:03.826Z,97.62
2018-06-19T11:42:45.988Z,98.87
2018-06-19T11:43:45.930Z,98.97
2018-06-19T11:44:45.854Z,99.99
2018-06-19T11:45:45.875Z,99.55
2018-06-19T11:46:45.636Z,98.83
2018-06-19T11:47:45.665Z,97.96
2018-06-19T11:48:45.513Z,99.79
2018-06-19T11:49:45.499Z,99.36
2018-06-19T11:50:45.346Z,97.81
2018-06-19T11:51:45.266Z,97.91
2018-06-19T11:52:45.255Z,97.14
2018-06-19T11:53:45.118Z,96.84
2018-06-19T11:54:45.081Z,97.04
2018-06-19T11:55:44.960Z,96.08
2018-06-19T11:56:44.905Z,96.70
2018-06-19T11:59:26.945Z,98.87
2018-06-19T12:00:27.956Z,99.02
2018-06-19T12:01:26.815Z,97.96
2018-06-19T12:02:26.820Z,97.77
2018-06-19T12:03:26.728Z,97.86
2018-06-19T12:06:08.979Z,95.78
2018-06-19T12:07:08.990Z,95.30
2018-06-19T12:08:08.805Z,93.66
2018-06-19T12:10:50.987Z,94.04
2018-06-19T12:11:50.887Z,93.22
2018-06-19T12:12:50.798Z,91.91
2018-06-19T12:13:50.859Z,91.33
2018-06-19T12:14:50.654Z,91.87
2018-06-19T12:15:50.687Z,93.03
2018-06-19T12:16:50.517Z,93.41
2018-06-19T12:17:51.529Z,94.34
2018-06-19T12:18:50.383Z,94.72
2018-06-19T12:19:50.418Z,93.95
2018-06-19T12:20:50.218Z,93.56
2018-06-19T12:23:32.479Z,93.32
2018-06-19T12:24:32.524Z,94.00
2018-06-19T12:25:32.360Z,94.77
2018-06-19T12:26:32.285Z,94.96
2018-06-19T12:27:32.149Z,95.64
2018-06-19T12:28:32.214Z,95.59
2018-06-19T12:29:32.020Z,97.42
2018-06-19T12:30:31.995Z,97.24
2018-06-19T12:31:31.883Z,98.49
2018-06-19T12:34:13.966Z,98.58
2018-06-19T12:35:13.914Z,99.40
2018-06-19T12:36:13.834Z,98.92
2018-06-19T12:38:55.972Z,97.47
2018-06-19T12:39:55.983Z,96.31
2018-06-19T12:40:55.825Z,96.70
2018-06-19T12:41:55.879Z,96.61
2018-06-19T12:42:55.698Z,94.82
2018-06-19T12:43:55.647Z,94.92
2018-06-19T12:44:55.519Z,93.95
2018-06-19T12:45:56.526Z,93.08
2018-06-19T12:46:55.395Z,93.95
2018-06-19T12:49:37.533Z,91.72
2018-06-19T12:50:39.671Z,91.63
2018-06-19T12:51:37.339Z,91.05
2018-06-19T12:52:37.263Z,91.63
2018-06-19T12:53:37.177Z,91.33
2018-06-19T12:54:37.191Z,90.75
2018-06-19T12:55:37.060Z,91.33
2018-06-19T12:56:36.960Z,90.66
2018-06-19T12:57:36.903Z,91.33
2018-06-19T12:58:36.917Z,91.91
2018-06-19T12:59:36.747Z,91.24
2018-06-19T13:02:18.993Z,92.31
2018-06-19T13:03:19.021Z,91.92
2018-06-19T13:04:18.826Z,92.50
2018-06-19T13:05:18.842Z,93.37
2018-06-19T13:06:18.671Z,93.66
2018-06-19T13:07:18.628Z,93.47
2018-06-19T13:08:18.537Z,93.76
2018-06-19T13:11:04.585Z,92.21
2018-06-19T13:12:04.439Z,92.46
2018-06-19T13:13:04.370Z,92.55
2018-06-19T13:15:46.497Z,93.80
2018-06-19T13:18:28.493Z,92.94
2018-06-19T13:19:28.403Z,92.94
2018-06-19T13:20:28.329Z,93.08
2018-06-19T13:23:10.527Z,91.77
2018-06-19T13:24:11.519Z,92.07
2018-06-19T13:25:10.343Z,91.77
2018-06-19T13:26:10.377Z,91.19
2018-06-19T13:27:10.215Z,90.86
2018-06-19T13:29:52.506Z,89.75
2018-06-19T13:30:52.477Z,89.55
2018-06-19T13:31:52.339Z,90.95
2018-06-19T13:34:34.481Z,90.75
2018-06-19T13:35:34.437Z,89.69
2018-06-19T13:36:34.330Z,89.21
2018-06-19T13:37:34.297Z,89.59
2018-06-19T13:38:34.180Z,89.65
2018-06-19T13:39:34.172Z,90.71
2018-06-19T13:40:34.028Z,90.23
2018-06-19T13:41:36.067Z,90.27
2018-06-19T13:42:33.910Z,89.84
2018-06-19T13:43:35.825Z,89.75
2018-06-19T13:44:33.761Z,90.03
2018-06-19T13:47:15.993Z,91.19
2018-06-19T13:48:16.034Z,90.47
2018-06-19T13:49:15.890Z,90.91
2018-06-19T13:50:15.868Z,90.75
2018-06-19T13:51:15.691Z,91.33
2018-06-19T13:53:58.004Z,90.52
2018-06-19T13:54:57.950Z,90.71
2018-06-19T13:55:57.871Z,91.53
2018-06-19T13:56:57.762Z,91.92
2018-06-19T13:57:57.711Z,91.83
2018-06-19T13:58:57.617Z,92.31
2018-06-19T13:59:57.540Z,92.89
2018-06-19T14:00:58.533Z,92.79
2018-06-19T14:01:57.486Z,92.21
2018-06-19T14:02:57.346Z,92.02
2018-06-19T14:03:57.258Z,92.60
2018-06-19T14:06:39.528Z,92.55
2018-06-19T14:07:39.589Z,93.62
2018-06-19T14:08:39.369Z,94.87
2018-06-19T14:11:21.520Z,96.22
2018-06-19T14:14:03.486Z,97.62
2018-06-19T14:15:03.518Z,97.24
2018-06-19T14:16:03.367Z,97.42
2018-06-19T14:17:04.377Z,97.72
2018-06-19T14:18:03.193Z,97.52
2018-06-19T14:19:03.252Z,98.20
2018-06-19T14:20:03.039Z,97.57
2018-06-19T14:21:04.133Z,97.42
2018-06-19T14:22:02.929Z,97.96
2018-06-19T14:24:45.020Z,98.68
2018-06-19T14:27:38.545Z,98.20
2018-06-19T14:28:38.527Z,97.24
2018-06-19T14:29:38.356Z,96.94
2018-06-19T14:30:38.348Z,96.84
2018-06-19T14:31:38.191Z,95.83
2018-06-19T14:32:38.178Z,95.54
2018-06-19T14:33:38.061Z,94.87
2018-06-19T14:34:38.062Z,94.38
2018-06-19T14:35:37.924Z,94.62
2018-06-19T14:36:37.928Z,93.66
2018-06-19T14:37:37.729Z,92.89
2018-06-19T14:38:37.817Z,92.69
2018-06-19T14:39:37.622Z,92.35
2018-06-19T14:40:37.594Z,92.07
2018-06-19T14:41:37.470Z,92.21
2018-06-19T14:42:37.524Z,91.91
2018-06-19T14:43:37.300Z,91.53
2018-06-19T14:44:37.227Z,90.37
2018-06-19T14:45:37.138Z,90.27
2018-06-19T14:48:19.015Z,89.31
2018-06-19T14:49:18.957Z,90.27
2018-06-19T14:50:18.858Z,90.56
2018-06-19T14:51:18.858Z,89.31
2018-06-19T14:52:18.702Z,89.31
2018-06-19T14:53:18.659Z,89.25
2018-06-19T14:54:18.578Z,88.77
2018-06-19T14:55:18.501Z,89.64
2018-06-19T14:56:18.406Z,89.64
2018-06-19T14:59:00.534Z,87.90
2018-06-19T15:00:00.492Z,88.24
2018-06-19T15:01:00.370Z,88.63
2018-06-19T15:03:42.517Z,88.82
2018-06-19T15:04:44.506Z,88.39
2018-06-19T15:05:42.407Z,88.19
2018-06-19T15:06:42.329Z,87.13
2018-06-19T15:07:42.242Z,87.51
2018-06-19T15:08:42.143Z,87.99
2018-06-19T15:09:42.095Z,88.09
2018-06-19T15:10:42.037Z,88.57
2018-06-19T15:11:41.928Z,88.96
2018-06-19T15:14:24.019Z,87.32
2018-06-19T15:15:23.975Z,88.15
2018-06-19T15:16:23.865Z,87.90
2018-06-19T15:19:06.009Z,88.15
2018-06-19T15:20:07.945Z,88.24
2018-06-19T15:21:05.893Z,88.15
2018-06-19T15:22:05.804Z,88.63
2018-06-19T15:23:05.752Z,88.53
2018-06-19T15:24:05.675Z,88.53
2018-06-19T15:25:05.568Z,87.85
2018-06-19T15:26:06.652Z,88.15
2018-06-19T15:27:05.426Z,87.90
2018-06-19T15:29:47.523Z,86.89
2018-06-19T15:30:48.473Z,87.51
2018-06-19T15:31:47.443Z,85.97
2018-06-19T15:32:47.302Z,85.77
2018-06-19T15:33:47.220Z,86.93
2018-06-19T15:36:29.541Z,85.97
2018-06-19T15:37:29.449Z,85.73
2018-06-19T15:38:29.372Z,86.02
2018-06-19T15:39:29.306Z,86.51
2018-06-19T15:40:29.228Z,85.63
2018-06-19T15:41:29.284Z,86.99
2018-06-19T15:42:29.102Z,87.18
2018-06-19T15:45:11.062Z,87.27
2018-06-19T15:46:11.037Z,87.76
2018-06-19T15:47:10.869Z,87.95
2018-06-19T15:49:53.055Z,87.18
2018-06-19T15:50:53.990Z,87.47
2018-06-19T15:51:52.902Z,88.15
2018-06-19T15:52:52.834Z,87.76
2018-06-19T15:53:52.756Z,88.15
2018-06-19T15:54:52.689Z,88.24
2018-06-19T15:55:52.593Z,88.05
2018-06-19T15:56:52.550Z,87.76
2018-06-19T15:57:52.490Z,87.41
2018-06-19T15:58:52.707Z,87.08
2018-06-19T15:59:52.346Z,88.29
2018-06-19T16:00:55.125Z,87.51
2018-06-19T16:01:52.220Z,87.32
2018-06-19T16:02:52.239Z,87.81
2018-06-19T16:03:52.011Z,87.90
2018-06-19T16:04:51.957Z,87.51
2018-06-19T16:05:51.859Z,87.71
2018-06-19T16:06:51.864Z,88.29
2018-06-19T16:07:51.735Z,88.63
2018-06-19T16:10:37.555Z,89.69
2018-06-19T16:11:39.514Z,89.11
2018-06-19T16:12:37.443Z,89.74
2018-06-19T16:13:37.344Z,89.35
2018-06-19T16:14:37.247Z,89.21
2018-06-19T16:15:37.177Z,88.82
2018-06-19T16:16:37.093Z,89.98
2018-06-19T16:17:37.040Z,89.89
2018-06-19T16:18:37.039Z,89.98
2018-06-19T16:19:36.908Z,89.98
2018-06-19T16:20:36.841Z,89.40
2018-06-19T16:21:36.829Z,89.45
2018-06-19T16:22:36.644Z,90.08
2018-06-19T16:23:41.564Z,90.95
2018-06-19T16:24:36.525Z,90.61
2018-06-19T16:27:18.567Z,89.40
2018-06-19T16:28:18.565Z,89.65
2018-06-19T16:29:18.470Z,90.23
2018-06-19T16:30:18.331Z,91.00
2018-06-19T16:31:18.268Z,90.81
2018-06-19T16:32:18.189Z,89.55
2018-06-19T16:33:19.074Z,90.23
2018-06-19T16:34:18.055Z,90.13
2018-06-19T16:35:18.006Z,89.65
2018-06-19T16:36:17.886Z,89.94
2018-06-19T16:37:17.784Z,90.03
2018-06-19T16:38:17.790Z,90.03
2018-06-19T16:39:17.683Z,89.11
2018-06-19T16:40:17.614Z,89.07
2018-06-19T16:41:17.591Z,88.59
2018-06-19T16:42:17.439Z,89.17
2018-06-19T16:43:17.342Z,88.68
2018-06-19T16:44:17.274Z,89.26
2018-06-19T16:45:17.230Z,89.55
2018-06-19T16:46:17.140Z,88.68
2018-06-19T16:47:17.035Z,89.17
2018-06-19T16:48:16.983Z,89.07
2018-06-19T16:49:16.909Z,89.65
2018-06-19T16:50:16.856Z,89.36
2018-06-19T16:51:16.771Z,89.55
2018-06-19T16:52:16.669Z,89.45
2018-06-19T16:53:16.601Z,88.10
2018-06-19T16:54:16.560Z,88.49
2018-06-19T16:55:16.476Z,88.68
2018-06-19T16:56:16.376Z,88.49
2018-06-19T16:57:16.314Z,88.20
2018-06-19T16:58:16.238Z,88.20
2018-06-19T16:59:16.165Z,88.39
2018-06-19T17:00:16.094Z,88.39
2018-06-19T17:01:15.998Z,89.07
2018-06-19T17:02:15.986Z,88.53
2018-06-19T17:03:15.836Z,88.82
2018-06-19T17:04:15.767Z,88.82
2018-06-19T17:05:15.698Z,88.24
2018-06-19T17:06:15.635Z,88.15
2018-06-19T17:07:15.570Z,88.43
2018-06-19T17:08:15.477Z,88.34
2018-06-19T17:09:15.393Z,88.10
2018-06-19T17:10:15.349Z,88.39
2018-06-19T17:11:15.259Z,88.97
2018-06-19T17:12:15.365Z,88.78
2018-06-19T17:13:15.114Z,89.07
2018-06-19T17:14:15.025Z,89.65
2018-06-19T17:15:14.943Z,89.36
2018-06-19T17:16:14.892Z,89.45
2018-06-19T17:17:14.832Z,89.11
2018-06-19T17:18:14.764Z,89.01
2018-06-19T17:19:14.666Z,89.45
2018-06-19T17:20:14.586Z,88.68
2018-06-19T17:21:14.515Z,88.87
2018-06-19T17:22:14.436Z,89.61
2018-06-19T17:23:14.372Z,89.55
2018-06-19T17:24:14.281Z,90.33
2018-06-19T17:25:14.187Z,89.99
2018-06-19T17:26:14.128Z,90.86
2018-06-19T17:27:14.066Z,91.44
2018-06-19T17:28:13.978Z,91.53
2018-06-19T17:29:13.928Z,90.95
2018-06-19T17:30:13.846Z,92.02
2018-06-19T17:31:13.762Z,91.15
2018-06-19T17:32:13.695Z,90.86
2018-06-19T17:33:13.631Z,91.05
2018-06-19T17:34:13.524Z,90.77
2018-06-19T17:35:13.499Z,91.05
2018-06-19T17:36:13.397Z,91.35
2018-06-19T17:37:13.299Z,91.25
2018-06-19T17:38:13.224Z,91.25
2018-06-19T17:39:13.287Z,91.53
2018-06-19T17:40:13.097Z,91.35
2018-06-19T17:41:13.026Z,91.25
2018-06-19T17:42:12.921Z,91.44
2018-06-19T17:43:12.854Z,91.73
2018-06-19T17:44:12.805Z,91.63
2018-06-19T17:45:12.679Z,91.83
2018-06-19T17:46:13.100Z,91.73
2018-06-19T17:47:12.555Z,91.73
2018-06-19T17:48:12.471Z,92.31
2018-06-19T17:49:12.391Z,92.31
2018-06-19T17:50:12.365Z,92.21
2018-06-19T17:51:12.227Z,92.26
2018-06-19T17:52:12.168Z,91.63
2018-06-19T17:53:12.079Z,92.41
2018-06-19T17:54:12.015Z,92.21
2018-06-19T17:55:11.943Z,92.50
2018-06-19T17:56:11.940Z,92.65
2018-06-19T17:57:11.804Z,92.74
2018-06-19T17:58:11.775Z,93.04
2018-06-19T17:59:11.742Z,92.94
2018-06-19T18:01:53.800Z,93.23
2018-06-19T18:02:53.558Z,93.42
2018-06-19T18:03:53.497Z,93.32
2018-06-19T18:04:53.422Z,93.23
2018-06-19T18:05:53.316Z,93.71
2018-06-19T18:06:53.272Z,93.04
2018-06-19T18:07:53.137Z,93.23
2018-06-19T18:08:53.148Z,93.52
2018-06-19T18:09:53.043Z,93.04
2018-06-19T18:10:52.997Z,93.42
2018-06-19T18:11:52.851Z,94.00
2018-06-19T18:12:52.836Z,94.20
2018-06-19T18:13:52.666Z,94.38
2018-06-19T18:14:52.727Z,95.06
2018-06-19T18:15:52.549Z,94.38